Latest Coastal Weather Observations for Point Fawcett

IDD60701

Issued at 7:51 am CST Friday 29 July 2016 (issued every 10 minutes, with the page automatically refreshed every 10 minutes)

About coastal observations | Map of coastal stations | Coastal observations for NT | Marine services | Other Formats
Station Details ID: 200731 Name: POINT FAWCETT Lat: -11.76 Lon: 130.03 Height: 6.5 m
Data from the previous 72 hours. | See also: Recent months at Point Fawcett
Date/Time
CST
Temp
°C
Wind Pressure Rain since
9am
mm
Weather Cloud Vis
km
Sea
Height
m
Swell
Dir  Spd
kts
Gust
kts
hPa Trend Height
m
Period
s
Dir
29/07:30am 24.8 ESE 6 11 1013.4 - 0.0 - - - - - - -
29/07:00am 23.9 ESE 5 9 1013.1 - 0.0 - - - - - - -
29/06:30am 24.1 ESE 6 9 1012.9 - 0.0 - - - - - - -
29/06:00am 24.3 ESE 6 9 1012.8 - 0.0 - - - - - - -
29/05:30am 24.7 E 6 9 1012.6 - 0.0 - - - - - - -
29/05:00am 25.3 E 8 15 1012.5 - 0.0 - - - - - - -
29/04:30am 25.2 ESE 7 13 1012.5 - 0.0 - - - - - - -
29/04:00am 24.9 ESE 6 13 1012.6 - 0.0 - - - - - - -
29/03:30am 25.0 ESE 7 12 1012.8 - 0.0 - - - - - - -
29/03:00am 25.1 ESE 6 13 1012.9 - 0.0 - - - - - - -
29/02:30am 24.1 ESE 5 9 1013.1 - 0.0 - - - - - - -
29/02:00am 22.6 SE 4 9 1013.3 - 0.0 - - - - - - -
29/01:30am 20.4 SSE 5 8 1013.5 - 0.0 - - - - - - -
29/01:00am 17.7 SSE 4 6 1013.6 - 0.0 - - - - - - -
29/12:30am 17.4 SE 3 4 1013.7 - 0.0 - - - - - - -
29/12:00am 17.7 SSE 4 5 1014.0 - 0.0 - - - - - - -
 
Date/Time
CST
Temp
°C
Wind Pressure Rain since
9am
mm
Weather Cloud Vis
km
Sea
Height
m
Swell
Dir  Spd
kts
Gust
kts
hPa Trend Height
m
Period
s
Dir
28/11:30pm 17.5 S 4 6 1014.2 - 0.0 - - - - - - -
28/11:00pm 17.6 SSE 4 5 1014.3 - 0.0 - - - - - - -
28/10:30pm 17.8 S 4 5 1014.4 - 0.0 - - - - - - -
28/10:00pm 17.9 S 5 6 1014.2 - 0.0 - - - - - - -
28/09:30pm 18.5 S 5 6 1014.2 - 0.0 - - - - - - -
28/09:00pm 19.3 S 5 6 1013.9 - 0.0 - - - - - - -
28/08:30pm 19.2 SSE 4 5 1013.6 - 0.0 - - - - - - -
28/08:00pm 19.7 SSE 4 6 1013.2 - 0.0 - - - - - - -
28/07:30pm 20.6 SSE 4 5 1012.9 - 0.0 - - - - - - -
28/07:00pm 22.6 SSE 4 5 1012.6 - 0.0 - - - - - - -
28/06:30pm 25.6 S 4 7 1012.2 - 0.0 - - - - - - -
28/06:00pm 27.1 S 5 7 1012.0 - 0.0 - - - - - - -
28/05:30pm 28.2 SSE 5 9 1011.8 - 0.0 - - - - - - -
28/05:00pm 28.8 SSE 7 11 1011.6 - 0.0 - - - - - - -
28/04:30pm 28.8 SSE 7 12 1011.2 - 0.0 - - - - - - -
28/04:00pm 29.0 SSE 7 13 1011.4 - 0.0 - - - - - - -
28/03:30pm 29.1 SSE 8 13 1011.6 - 0.0 - - - - - - -
28/03:00pm 29.8 SE 8 14 1011.8 - 0.0 - - - - - - -
28/02:30pm 29.4 SE 7 15 1012.3 - 0.0 - - - - - - -
28/02:00pm 29.3 SE 9 18 1012.7 - 0.0 - - - - - - -
28/01:30pm 29.7 ESE 9 14 1013.2 - 0.0 - - - - - - -
28/01:00pm 29.4 SE 9 14 1013.7 - 0.0 - - - - - - -
28/12:30pm 28.9 ESE 10 16 1014.1 - 0.0 - - - - - - -
28/12:00pm 28.3 ESE 13 21 1014.6 - 0.0 - - - - - - -
28/11:30am 28.1 ESE 10 20 1015.0 - 0.0 - - - - - - -
28/11:00am 28.3 ESE 11 20 1015.3 - 0.0 - - - - - - -
28/10:30am 28.0 ESE 10 18 1015.6 - 0.0 - - - - - - -
28/10:00am 27.3 ESE 10 17 1016.0 - 0.0 - - - - - - -
28/09:30am 27.5 ESE 8 17 1016.1 - 0.0 - - - - - - -
28/09:00am 26.5 ESE 7 13 1016.1 - 0.0 - - - - - - -
28/08:30am 24.7 ESE 7 12 1015.9 - 0.0 - - - - - - -
28/08:00am 20.8 ESE 4 6 1015.4 - 0.0 - - - - - - -
28/07:30am 17.3 ESE 5 6 1015.0 - 0.0 - - - - - - -
28/07:00am 17.1 ESE 5 6 1014.6 - 0.0 - - - - - - -
28/06:30am 17.7 ESE 5 7 1014.1 - 0.0 - - - - - - -
28/06:00am 17.5 ESE 5 7 1014.1 - 0.0 - - - - - - -
28/05:30am 17.6 ESE 5 7 1013.9 - 0.0 - - - - - - -
28/05:00am 16.7 ESE 5 7 1013.8 - 0.0 - - - - - - -
28/04:30am 16.3 E 5 6 1013.7 - 0.0 - - - - - - -
28/04:00am 16.2 E 5 6 1013.8 - 0.0 - - - - - - -
28/03:30am 16.0 E 4 5 1013.7 - 0.0 - - - - - - -
28/03:00am 15.9 E 4 5 1013.9 - 0.0 - - - - - - -
28/02:30am 16.0 E 4 5 1013.8 - 0.0 - - - - - - -
28/02:00am 16.0 E 4 4 1014.1 - 0.0 - - - - - - -
28/01:30am 16.2 ESE 4 4 1014.2 - 0.0 - - - - - - -
28/01:00am 16.4 SE 4 4 1014.3 - 0.0 - - - - - - -
28/12:30am 16.6 SE 4 5 1014.3 - 0.0 - - - - - - -
28/12:00am 16.9 SE 4 4 1014.4 - 0.0 - - - - - - -
 
Date/Time
CST
Temp
°C
Wind Pressure Rain since
9am
mm
Weather Cloud Vis
km
Sea
Height
m
Swell
Dir  Spd
kts
Gust
kts
hPa Trend Height
m
Period
s
Dir
27/11:30pm 17.2 SE 4 5 1014.2 - 0.0 - - - - - - -
27/11:00pm 17.6 E 5 6 1014.1 - 0.0 - - - - - - -
27/10:30pm 18.2 E 5 6 1014.0 - 0.0 - - - - - - -
27/10:00pm 18.4 SE 4 5 1013.7 - 0.0 - - - - - - -
27/09:30pm 18.9 ESE 4 5 1013.6 - 0.0 - - - - - - -
27/09:00pm 19.7 E 4 5 1013.3 - 0.0 - - - - - - -
27/08:30pm 20.4 E 5 5 1012.9 - 0.0 - - - - - - -
27/08:00pm 22.1 E 4 6 1012.5 - 0.0 - - - - - - -
27/07:30pm 24.2 E 5 6 1012.3 - 0.0 - - - - - - -
27/07:00pm 25.6 E 5 6 1012.0 - 0.0 - - - - - - -
27/06:30pm 28.0 ESE 4 6 1011.7 - 0.0 - - - - - - -
27/06:00pm 29.9 E 5 9 1011.5 - 0.0 - - - - - - -
27/05:30pm 30.9 ESE 6 9 1011.3 - 0.0 - - - - - - -
27/05:00pm 31.2 E 8 15 1011.1 - 0.0 - - - - - - -
27/04:30pm 31.4 E 7 13 1011.1 - 0.0 - - - - - - -
27/04:00pm 31.0 E 8 14 1011.0 - 0.0 - - - - - - -
27/03:30pm 31.0 ESE 8 15 1011.0 - 0.0 - - - - - - -
27/03:00pm 31.1 E 11 17 1011.2 - 0.0 - - - - - - -
27/02:30pm 30.4 ESE 11 18 1011.9 - 0.0 - - - - - - -
27/02:00pm 30.5 E 12 21 1012.1 - 0.0 - - - - - - -
27/01:30pm 30.1 E 13 20 1012.3 - 0.0 - - - - - - -
27/01:00pm 29.9 ESE 12 22 1013.0 - 0.0 - - - - - - -
27/12:30pm 30.1 ESE 10 21 1013.5 - 0.0 - - - - - - -
27/12:00pm 29.2 SE 10 19 1013.9 - 0.0 - - - - - - -
27/11:30am 29.0 SE 8 16 1014.2 - 0.0 - - - - - - -
27/11:00am 29.7 ESE 12 17 1014.4 - 0.0 - - - - - - -
27/10:30am 29.9 ESE 8 13 1014.5 - 0.0 - - - - - - -
27/10:00am 29.1 SE 5 11 1014.4 - 0.0 - - - - - - -
27/09:30am 27.8 ESE 6 9 1014.6 - 0.0 - - - - - - -
27/09:00am 26.9 E 5 8 1014.6 - 0.0 - - - - - - -
27/08:30am 24.2 E 5 8 1014.1 - 0.0 - - - - - - -
27/08:00am 19.7 E 5 6 1013.9 - 0.0 - - - - - - -
27/07:30am 18.3 E 5 6 1013.6 - 0.0 - - - - - - -
27/07:00am 17.6 E 5 6 1013.4 - 0.0 - - - - - - -
27/06:30am 17.7 E 5 6 1013.1 - 0.0 - - - - - - -
27/06:00am 17.8 E 5 6 1013.0 - 0.0 - - - - - - -
27/05:30am 17.9 E 5 6 1012.9 - 0.0 - - - - - - -
27/05:00am 17.7 ESE 5 6 1012.7 - 0.0 - - - - - - -
27/04:30am 17.9 ESE 4 5 1012.5 - 0.0 - - - - - - -
27/04:00am 18.0 ESE 4 5 1012.4 - 0.0 - - - - - - -
27/03:30am 18.1 ESE 4 5 1012.4 - 0.0 - - - - - - -
27/03:00am 18.5 SE 4 5 1012.5 - 0.0 - - - - - - -
27/02:30am 18.4 ESE 4 5 1012.7 - 0.0 - - - - - - -
27/02:00am 18.5 E 5 6 1012.9 - 0.0 - - - - - - -
27/01:30am 18.4 ESE 4 6 1013.0 - 0.0 - - - - - - -
27/01:00am 18.2 ESE 5 5 1013.3 - 0.0 - - - - - - -
27/12:30am 18.3 SE 4 5 1013.4 - 0.0 - - - - - - -
27/12:00am 18.1 E 3 4 1013.2 - 0.0 - - - - - - -
 
Date/Time
CST
Temp
°C
Wind Pressure Rain since
9am
mm
Weather Cloud Vis
km
Sea
Height
m
Swell
Dir  Spd
kts
Gust
kts
hPa Trend Height
m
Period
s
Dir
26/11:30pm 18.4 E 3 4 1013.2 - 0.0 - - - - - - -
26/11:00pm 18.6 E 4 5 1013.2 - 0.0 - - - - - - -
26/10:30pm 18.8 E 4 5 1013.1 - 0.0 - - - - - - -
26/10:00pm 19.5 ESE 4 5 1013.1 - 0.0 - - - - - - -
26/09:30pm 20.4 E 5 5 1012.9 - 0.0 - - - - - - -
26/09:00pm 22.3 E 5 8 1012.7 - 0.0 - - - - - - -
26/08:30pm 20.0 SSE 4 5 1012.2 - 0.0 - - - - - - -
26/08:00pm 20.6 SSE 4 5 1011.8 - 0.0 - - - - - - -
26/07:30pm 21.5 SSE 4 5 1011.5 - 0.0 - - - - - - -
26/07:00pm 23.3 SSE 4 5 1010.9 - 0.0 - - - - - - -
26/06:30pm 27.0 ESE 3 4 1010.6 - 0.0 - - - - - - -
26/06:00pm 29.8 ESE 4 5 1010.4 - 0.0 - - - - - - -
26/05:30pm 30.6 SE 5 7 1010.0 - 0.0 - - - - - - -
26/05:00pm 31.4 ESE 5 9 1010.0 - 0.0 - - - - - - -
26/04:30pm 31.8 ESE 7 14 1010.0 - 0.0 - - - - - - -
26/04:00pm 31.5 ESE 9 14 1010.2 - 0.0 - - - - - - -
26/03:30pm 31.8 E 9 14 1010.3 - 0.0 - - - - - - -
26/03:00pm 31.8 ESE 9 15 1010.6 - 0.0 - - - - - - -
26/02:30pm 31.9 ESE 8 19 1010.8 - 0.0 - - - - - - -
26/02:00pm 31.4 SE 10 18 1011.2 - 0.0 - - - - - - -
26/01:30pm 31.2 ESE 9 17 1011.7 - 0.0 - - - - - - -
26/01:00pm 31.3 ESE 10 18 1012.1 - 0.0 - - - - - - -
26/12:30pm 31.9 E 10 18 1012.4 - 0.0 - - - - - - -
26/12:00pm 31.6 E 9 15 1012.8 - 0.0 - - - - - - -
26/11:30am 31.1 E 10 16 1012.9 - 0.0 - - - - - - -
26/11:00am 30.7 SE 7 14 1013.3 - 0.0 - - - - - - -
26/10:30am 30.1 ESE 7 11 1013.6 - 0.0 - - - - - - -
26/10:00am 29.2 ESE 4 6 1013.7 - 0.0 - - - - - - -
26/09:30am 28.6 E 5 7 1013.9 - 0.0 - - - - - - -
26/09:00am 27.4 E 4 5 1013.7 - 0.0 - - - - - - -
26/08:30am 24.4 ESE 2 5 1013.5 - 0.0 - - - - - - -
26/08:00am 21.1 ESE 4 5 1013.3 - 0.0 - - - - - - -

Other Formats:

Comma delimited format used in spreadsheet applications
http://www.bom.gov.au/fwo/IDD60701/IDD60701.94122.axf

JavaScript Object Notation format (JSON) in row-major order
http://www.bom.gov.au/fwo/IDD60701/IDD60701.94122.json